createdAt,value
2022-09-20T00:01:15.351Z,1.70
2022-09-20T00:04:07.850Z,1.85
2022-09-20T00:09:46.441Z,2.00
2022-09-20T00:12:36.164Z,1.60
2022-09-20T00:15:25.778Z,1.95
2022-09-20T00:18:15.439Z,1.65
2022-09-20T00:21:06.431Z,1.80
2022-09-20T00:23:56.349Z,2.00
2022-09-20T00:26:46.253Z,1.80
2022-09-20T00:29:35.683Z,1.67
2022-09-20T00:32:25.183Z,1.60
2022-09-20T00:35:14.674Z,1.70
2022-09-20T00:38:04.266Z,1.83
2022-09-20T00:40:58.529Z,1.90
2022-09-20T00:43:48.400Z,1.80
2022-09-20T00:46:42.357Z,1.67
2022-09-20T00:49:31.896Z,1.83
2022-09-20T00:52:21.790Z,1.73
2022-09-20T00:55:12.374Z,1.60
2022-09-20T00:58:02.396Z,1.80
2022-09-20T01:00:55.020Z,1.75
2022-09-20T01:03:45.203Z,1.75
2022-09-20T01:06:35.347Z,1.73
2022-09-20T01:09:24.707Z,1.70
2022-09-20T01:12:21.836Z,1.77
2022-09-20T01:15:12.475Z,1.60
2022-09-20T01:18:03.537Z,1.73
2022-09-20T01:20:53.128Z,1.80
2022-09-20T01:24:10.327Z,1.75
2022-09-20T01:27:17.238Z,1.90
2022-09-20T01:30:20.708Z,1.80
2022-09-20T01:33:19.815Z,1.75
2022-09-20T01:36:13.111Z,1.90
2022-09-20T01:39:18.478Z,1.65
2022-09-20T01:42:11.209Z,1.70
2022-09-20T01:48:33.539Z,1.60
2022-09-20T01:51:42.092Z,1.85
2022-09-20T01:54:37.464Z,1.70
2022-09-20T01:57:35.907Z,1.90
2022-09-20T02:00:36.026Z,1.80
2022-09-20T02:03:56.010Z,1.73
2022-09-20T02:06:58.140Z,1.60
2022-09-20T02:10:15.418Z,1.73
2022-09-20T02:13:42.352Z,1.90
2022-09-20T02:16:50.247Z,1.80
2022-09-20T02:20:00.023Z,1.77
2022-09-20T02:23:14.467Z,1.85
2022-09-20T02:26:25.660Z,1.63
2022-09-20T02:29:28.179Z,1.70
2022-09-20T02:32:26.032Z,1.77
2022-09-20T02:35:21.676Z,1.90
2022-09-20T02:38:38.903Z,1.80
2022-09-20T02:42:10.660Z,1.75
2022-09-20T02:45:09.747Z,1.65
2022-09-20T02:48:05.679Z,1.60
2022-09-20T02:51:14.620Z,1.75
2022-09-20T02:54:27.481Z,1.50
2022-09-20T02:57:27.900Z,1.63
2022-09-20T03:00:25.176Z,1.48
2022-09-20T03:03:39.124Z,1.42
2022-09-20T03:06:49.832Z,1.52
2022-09-20T03:10:16.492Z,1.90
2022-09-20T03:13:30.032Z,1.60
2022-09-20T03:16:53.471Z,1.50
2022-09-20T03:19:45.871Z,1.50
2022-09-20T03:23:13.298Z,1.60
2022-09-20T03:26:42.152Z,1.40
2022-09-20T03:29:34.668Z,1.70
2022-09-20T03:35:54.759Z,1.80
2022-09-20T03:39:15.995Z,1.58
2022-09-20T03:42:20.085Z,1.67
2022-09-20T03:45:28.041Z,1.80
2022-09-20T03:48:30.799Z,1.60
2022-09-20T03:54:54.244Z,1.50
2022-09-20T03:58:11.611Z,1.52
2022-09-20T04:01:34.651Z,1.70
2022-09-20T04:07:36.416Z,1.50
2022-09-20T04:10:47.952Z,1.60
2022-09-20T04:13:56.783Z,1.40
2022-09-20T04:17:02.692Z,1.40
2022-09-20T04:20:14.688Z,1.40
2022-09-20T04:23:19.752Z,1.50
2022-09-20T04:26:09.412Z,1.50
2022-09-20T04:29:20.380Z,1.40
2022-09-20T04:32:33.619Z,1.40
2022-09-20T04:36:18.458Z,1.50
2022-09-20T04:39:07.676Z,1.50
2022-09-20T04:42:34.017Z,1.30
2022-09-20T04:45:46.516Z,1.40
2022-09-20T04:48:41.530Z,1.48
2022-09-20T04:51:59.115Z,1.52
2022-09-20T04:55:02.140Z,1.48
2022-09-20T04:58:03.112Z,1.33
2022-09-20T05:01:20.646Z,1.60
2022-09-20T05:04:34.375Z,1.42
2022-09-20T05:07:57.978Z,1.45
2022-09-20T05:10:59.295Z,1.30
2022-09-20T05:13:58.699Z,1.40
2022-09-20T05:16:48.065Z,1.35
2022-09-20T05:20:08.397Z,1.48
2022-09-20T05:23:28.961Z,1.50
2022-09-20T05:26:41.744Z,1.38
2022-09-20T05:29:33.930Z,1.35
2022-09-20T05:32:29.924Z,1.42
2022-09-20T05:35:39.442Z,1.50
2022-09-20T05:38:43.989Z,1.40
2022-09-20T05:41:44.656Z,1.52
2022-09-20T05:45:07.120Z,1.40
2022-09-20T05:48:13.560Z,1.55
2022-09-20T05:51:36.552Z,1.40
2022-09-20T05:54:56.500Z,1.40
2022-09-20T05:58:26.454Z,1.45
2022-09-20T06:01:47.128Z,1.42
2022-09-20T06:05:21.340Z,1.45
2022-09-20T06:08:36.588Z,1.40
2022-09-20T06:11:50.300Z,1.50
2022-09-20T06:14:39.843Z,1.58
2022-09-20T06:18:00.035Z,1.40
2022-09-20T06:21:01.553Z,1.48
2022-09-20T06:23:50.908Z,1.63
2022-09-20T06:26:40.949Z,1.45
2022-09-20T06:29:40.455Z,1.63
2022-09-20T06:32:29.775Z,1.45
2022-09-20T06:35:19.248Z,1.50
2022-09-20T06:38:57.781Z,1.50
2022-09-20T06:41:47.191Z,1.60
2022-09-20T06:44:37.180Z,1.42
2022-09-20T06:47:28.375Z,1.50
2022-09-20T06:50:18.485Z,1.60
2022-09-20T06:53:08.518Z,1.42
2022-09-20T06:55:58.807Z,1.30
2022-09-20T06:58:48.631Z,1.70
2022-09-20T07:01:38.872Z,1.60
2022-09-20T07:04:28.220Z,1.60
2022-09-20T07:07:21.763Z,1.70
2022-09-20T07:10:12.836Z,1.50
2022-09-20T07:13:03.356Z,1.58
2022-09-20T07:15:52.739Z,1.40
2022-09-20T07:18:42.541Z,1.60
2022-09-20T07:21:31.795Z,1.52
2022-09-20T07:24:21.100Z,1.50
2022-09-20T07:27:12.650Z,1.73
2022-09-20T07:30:03.542Z,1.70
2022-09-20T07:32:53.099Z,1.70
2022-09-20T07:35:42.700Z,1.77
2022-09-20T07:38:32.051Z,1.60
2022-09-20T07:41:24.487Z,1.50
2022-09-20T07:44:23.207Z,1.55
2022-09-20T07:47:15.134Z,1.60
2022-09-20T07:50:05.932Z,1.67
2022-09-20T07:52:58.620Z,1.60
2022-09-20T07:58:56.540Z,1.70
2022-09-20T08:01:46.271Z,1.40
2022-09-20T08:04:36.237Z,1.58
2022-09-20T08:07:25.915Z,1.77
2022-09-20T08:10:15.542Z,1.70
2022-09-20T08:16:15.759Z,1.60
2022-09-20T08:19:05.339Z,1.88
2022-09-20T08:21:55.360Z,1.75
2022-09-20T08:24:45.266Z,1.58
2022-09-20T08:27:34.702Z,1.77
2022-09-20T08:30:27.620Z,1.60
2022-09-20T08:33:17.352Z,1.55
2022-09-20T08:36:07.744Z,1.40
2022-09-20T08:42:13.936Z,1.70
2022-09-20T08:45:09.027Z,1.70
2022-09-20T08:48:07.031Z,1.60
2022-09-20T08:50:56.337Z,1.70
2022-09-20T08:53:49.736Z,1.70
2022-09-20T08:56:39.861Z,1.75
2022-09-20T08:59:29.339Z,1.70
2022-09-20T09:02:21.949Z,1.80
2022-09-20T09:08:18.437Z,1.85
2022-09-20T09:11:16.661Z,1.60
2022-09-20T09:14:33.219Z,1.63
2022-09-20T09:17:31.763Z,1.67
2022-09-20T09:20:23.687Z,1.65
2022-09-20T09:23:27.819Z,1.65
2022-09-20T09:26:41.672Z,1.60
2022-09-20T09:29:34.773Z,1.60
2022-09-20T09:32:36.227Z,1.60
2022-09-20T09:35:32.848Z,1.55
2022-09-20T09:38:28.020Z,1.65
2022-09-20T09:41:27.584Z,1.70
2022-09-20T09:44:28.783Z,1.60
2022-09-20T09:47:44.380Z,1.58
2022-09-20T09:50:37.879Z,1.63
2022-09-20T09:53:27.654Z,1.60
2022-09-20T09:56:58.303Z,1.70
2022-09-20T10:00:17.486Z,1.60
2022-09-20T10:03:38.570Z,1.75
2022-09-20T10:06:38.184Z,1.70
2022-09-20T10:09:52.983Z,1.60
2022-09-20T10:13:00.385Z,1.50
2022-09-20T10:16:01.088Z,1.75
2022-09-20T10:19:13.863Z,1.75
2022-09-20T10:22:14.178Z,1.60
2022-09-20T10:25:15.677Z,1.63
2022-09-20T10:28:55.244Z,1.60
2022-09-20T10:32:27.519Z,1.60
2022-09-20T10:35:29.112Z,1.50
2022-09-20T10:38:47.261Z,1.50
2022-09-20T10:42:04.208Z,1.50
2022-09-20T10:45:11.899Z,1.42
2022-09-20T10:48:33.734Z,1.50
2022-09-20T10:51:45.539Z,1.55
2022-09-20T10:54:58.901Z,1.50
2022-09-20T10:58:17.893Z,1.40
2022-09-20T11:01:48.985Z,1.40
2022-09-20T11:04:56.391Z,1.70
2022-09-20T11:08:05.935Z,1.65
2022-09-20T11:11:21.434Z,1.45
2022-09-20T11:14:49.497Z,1.40
2022-09-20T11:17:46.096Z,1.50
2022-09-20T11:20:45.192Z,1.30
2022-09-20T11:24:02.775Z,1.50
2022-09-20T11:27:00.069Z,1.42
2022-09-20T11:30:05.605Z,1.40
2022-09-20T11:33:41.277Z,1.30
2022-09-20T11:36:53.580Z,1.60
2022-09-20T11:40:07.624Z,1.40
2022-09-20T11:43:01.106Z,1.50
2022-09-20T11:45:57.471Z,1.52
2022-09-20T11:49:04.152Z,1.40
2022-09-20T11:52:11.533Z,1.30
2022-09-20T11:55:11.808Z,1.30
2022-09-20T11:58:06.059Z,1.27
2022-09-20T12:01:00.441Z,1.20
2022-09-20T12:04:08.643Z,1.20
2022-09-20T12:07:18.258Z,1.23
2022-09-20T12:10:21.475Z,1.50
2022-09-20T12:16:47.159Z,1.40
2022-09-20T12:19:37.471Z,1.20
2022-09-20T12:22:30.431Z,1.23
2022-09-20T12:25:41.639Z,1.30
2022-09-20T12:28:40.889Z,1.27
2022-09-20T12:31:33.398Z,1.30
2022-09-20T12:34:22.756Z,1.65
2022-09-20T12:37:15.789Z,1.38
2022-09-20T12:40:06.212Z,1.30
2022-09-20T12:42:58.888Z,1.20
2022-09-20T12:45:57.939Z,1.42
2022-09-20T12:48:50.785Z,1.20
2022-09-20T12:51:58.136Z,1.52
2022-09-20T12:54:56.297Z,1.40
2022-09-20T12:58:16.901Z,1.42
2022-09-20T13:01:08.506Z,1.60
2022-09-20T13:04:38.325Z,1.30
2022-09-20T13:07:44.478Z,1.10
2022-09-20T13:10:39.381Z,1.30
2022-09-20T13:13:58.529Z,1.30
2022-09-20T13:17:17.040Z,1.20
2022-09-20T13:20:07.855Z,1.10
2022-09-20T13:23:00.311Z,1.40
2022-09-20T13:28:52.504Z,1.30
2022-09-20T13:31:41.930Z,1.20
2022-09-20T13:34:31.226Z,1.20
2022-09-20T13:37:24.598Z,1.38
2022-09-20T13:40:26.355Z,1.30
2022-09-20T13:43:28.782Z,1.20
2022-09-20T13:46:33.929Z,1.25
2022-09-20T13:49:24.838Z,1.30
2022-09-20T13:52:29.114Z,1.30
2022-09-20T13:55:37.035Z,1.25
2022-09-20T13:58:38.234Z,1.40
2022-09-20T14:01:36.082Z,1.20
2022-09-20T14:04:27.409Z,1.40
2022-09-20T14:07:17.180Z,1.15
2022-09-20T14:10:08.095Z,1.40
2022-09-20T14:12:58.333Z,1.30
2022-09-20T14:15:49.168Z,1.17
2022-09-20T14:18:41.035Z,1.10
2022-09-20T14:21:34.054Z,1.17
2022-09-20T14:25:21.635Z,1.20
2022-09-20T14:28:23.598Z,1.25
2022-09-20T14:31:23.853Z,1.30
2022-09-20T14:34:14.888Z,1.20
2022-09-20T14:37:13.251Z,1.10
2022-09-20T14:40:18.335Z,1.10
2022-09-20T14:43:08.708Z,1.30
2022-09-20T14:46:01.651Z,1.20
2022-09-20T14:48:51.793Z,1.10
2022-09-20T14:51:41.585Z,1.30
2022-09-20T14:54:33.394Z,1.40
2022-09-20T14:57:23.816Z,1.40
2022-09-20T15:00:18.779Z,1.40
2022-09-20T15:03:10.333Z,1.23
2022-09-20T15:06:00.076Z,1.40
2022-09-20T15:08:49.592Z,1.20
2022-09-20T15:11:38.888Z,1.20
2022-09-20T15:14:28.256Z,1.20
2022-09-20T15:17:20.180Z,1.30
2022-09-20T15:20:17.232Z,1.33
2022-09-20T15:23:08.497Z,1.33
2022-09-20T15:25:57.976Z,1.30
2022-09-20T15:28:47.369Z,1.33
2022-09-20T15:31:36.729Z,1.20
2022-09-20T15:34:26.209Z,1.60
2022-09-20T15:37:15.561Z,1.45
2022-09-20T15:40:06.624Z,1.40
2022-09-20T15:43:01.707Z,1.40
2022-09-20T15:45:56.825Z,1.33
2022-09-20T15:48:46.397Z,1.40
2022-09-20T15:51:36.444Z,1.58
2022-09-20T15:54:27.657Z,1.65
2022-09-20T15:57:17.362Z,1.60
2022-09-20T16:00:07.135Z,1.48
2022-09-20T16:02:59.914Z,1.70
2022-09-20T16:06:04.115Z,1.40
2022-09-20T16:08:54.739Z,1.60
2022-09-20T16:11:43.988Z,1.48
2022-09-20T16:14:33.376Z,1.30
2022-09-20T16:17:45.351Z,1.70
2022-09-20T16:20:34.655Z,1.90
2022-09-20T16:23:26.005Z,1.50
2022-09-20T16:26:15.463Z,1.67
2022-09-20T16:29:12.700Z,1.80
2022-09-20T16:32:04.638Z,1.67
2022-09-20T16:34:55.879Z,1.60
2022-09-20T16:37:45.304Z,1.60
2022-09-20T16:40:36.098Z,1.77
2022-09-20T16:43:27.227Z,1.60
2022-09-20T16:46:16.732Z,1.67
2022-09-20T16:49:12.619Z,1.55
2022-09-20T16:52:02.194Z,1.50
2022-09-20T16:54:51.497Z,1.70
2022-09-20T16:57:40.992Z,1.73
2022-09-20T17:00:31.362Z,1.70
2022-09-20T17:03:21.206Z,1.65
2022-09-20T17:06:10.708Z,1.70
2022-09-20T17:09:00.236Z,1.77
2022-09-20T17:11:51.226Z,1.92
2022-09-20T17:14:40.744Z,1.70
2022-09-20T17:17:30.103Z,1.80
2022-09-20T17:20:19.392Z,1.55
2022-09-20T17:23:10.668Z,1.70
2022-09-20T17:26:05.928Z,1.77
2022-09-20T17:28:57.372Z,1.90
2022-09-20T17:31:54.522Z,1.90
2022-09-20T17:34:44.205Z,1.50
2022-09-20T17:37:33.427Z,1.70
2022-09-20T17:40:22.680Z,1.60
2022-09-20T17:43:12.175Z,2.00
2022-09-20T17:46:31.050Z,1.83
2022-09-20T17:49:22.285Z,1.90
2022-09-20T17:52:12.260Z,1.90
2022-09-20T17:55:02.105Z,1.80
2022-09-20T17:57:53.981Z,2.13
2022-09-20T18:00:43.335Z,1.67
2022-09-20T18:03:39.846Z,1.90
2022-09-20T18:06:31.669Z,1.92
2022-09-20T18:09:25.977Z,1.87
2022-09-20T18:12:18.937Z,1.90
2022-09-20T18:15:10.520Z,1.80
2022-09-20T18:18:00.747Z,1.80
2022-09-20T18:20:50.247Z,2.10
2022-09-20T18:23:39.574Z,1.73
2022-09-20T18:26:31.428Z,2.00
2022-09-20T18:29:20.769Z,2.00
2022-09-20T18:32:10.177Z,1.98
2022-09-20T18:34:59.472Z,1.85
2022-09-20T18:37:48.802Z,1.95
2022-09-20T18:40:42.991Z,1.80
2022-09-20T18:43:33.475Z,1.90
2022-09-20T18:46:28.007Z,1.95
2022-09-20T18:49:18.003Z,2.00
2022-09-20T18:52:07.595Z,1.95
2022-09-20T18:54:57.992Z,1.80
2022-09-20T18:57:47.880Z,1.80
2022-09-20T19:00:37.696Z,2.00
2022-09-20T19:03:49.421Z,1.90
2022-09-20T19:06:58.884Z,1.70
2022-09-20T19:10:09.714Z,1.90
2022-09-20T19:12:59.355Z,1.75
2022-09-20T19:16:12.190Z,1.80
2022-09-20T19:19:17.635Z,1.90
2022-09-20T19:22:13.938Z,2.03
2022-09-20T19:25:15.659Z,1.70
2022-09-20T19:28:05.254Z,1.80
2022-09-20T19:30:55.958Z,1.70
2022-09-20T19:33:46.153Z,1.80
2022-09-20T19:36:41.139Z,1.75
2022-09-20T19:40:02.347Z,1.90
2022-09-20T19:43:20.378Z,1.80
2022-09-20T19:46:28.313Z,1.80
2022-09-20T19:49:56.694Z,1.90
2022-09-20T19:52:46.544Z,1.90
2022-09-20T19:55:38.183Z,1.65
2022-09-20T19:58:27.740Z,1.95
2022-09-20T20:01:17.417Z,1.83
2022-09-20T20:04:07.144Z,1.70
2022-09-20T20:07:07.737Z,1.70
2022-09-20T20:10:11.777Z,1.77
2022-09-20T20:13:30.754Z,1.60
2022-09-20T20:16:34.485Z,1.67
2022-09-20T20:19:42.723Z,1.70
2022-09-20T20:22:53.280Z,1.90
2022-09-20T20:26:11.224Z,1.90
2022-09-20T20:29:00.997Z,1.58
2022-09-20T20:31:50.437Z,1.80
2022-09-20T20:34:40.310Z,1.70
2022-09-20T20:37:29.895Z,1.90
2022-09-20T20:40:19.680Z,2.00
2022-09-20T20:43:10.326Z,1.77
2022-09-20T20:45:59.845Z,1.60
2022-09-20T20:48:49.615Z,1.70
2022-09-20T20:51:39.276Z,1.85
2022-09-20T20:54:28.724Z,1.90
2022-09-20T20:57:19.923Z,1.70
2022-09-20T21:00:10.323Z,1.60
2022-09-20T21:03:04.637Z,1.55
2022-09-20T21:05:57.108Z,1.60
2022-09-20T21:08:49.588Z,1.70
2022-09-20T21:11:45.858Z,1.70
2022-09-20T21:14:35.713Z,1.67
2022-09-20T21:17:25.011Z,1.60
2022-09-20T21:20:14.371Z,1.67
2022-09-20T21:23:03.715Z,1.77
2022-09-20T21:26:10.399Z,1.80
2022-09-20T21:29:01.790Z,1.65
2022-09-20T21:31:51.119Z,1.70
2022-09-20T21:34:40.479Z,1.70
2022-09-20T21:37:29.931Z,1.60
2022-09-20T21:40:19.267Z,1.70
2022-09-20T21:43:09.128Z,1.70
2022-09-20T21:45:59.891Z,1.63
2022-09-20T21:48:51.558Z,1.70
2022-09-20T21:51:46.260Z,1.60
2022-09-20T21:54:35.698Z,1.90
2022-09-20T21:57:25.039Z,1.50
2022-09-20T22:00:14.959Z,1.60
2022-09-20T22:03:04.279Z,1.70
2022-09-20T22:05:53.809Z,1.60
2022-09-20T22:08:48.649Z,1.40
2022-09-20T22:11:46.994Z,1.40
2022-09-20T22:14:39.125Z,1.58
2022-09-20T22:17:30.650Z,1.45
2022-09-20T22:20:20.165Z,1.63
2022-09-20T22:23:11.199Z,1.52
2022-09-20T22:26:06.391Z,1.85
2022-09-20T22:28:56.129Z,1.50
2022-09-20T22:31:47.683Z,1.58
2022-09-20T22:34:37.260Z,1.75
2022-09-20T22:37:26.799Z,1.60
2022-09-20T22:40:16.700Z,1.40
2022-09-20T22:43:06.099Z,1.60
2022-09-20T22:45:56.032Z,1.60
2022-09-20T22:48:45.879Z,1.50
2022-09-20T22:51:36.180Z,1.50
2022-09-20T22:54:25.743Z,1.50
2022-09-20T22:57:15.458Z,1.45
2022-09-20T23:00:05.754Z,1.40
2022-09-20T23:03:00.345Z,1.50
2022-09-20T23:05:49.789Z,1.40
2022-09-20T23:08:39.633Z,1.50
2022-09-20T23:11:30.179Z,1.40
2022-09-20T23:14:21.441Z,1.52
2022-09-20T23:17:10.806Z,1.52
2022-09-20T23:20:00.163Z,1.42
2022-09-20T23:22:49.480Z,1.60
2022-09-20T23:25:38.966Z,1.60
2022-09-20T23:28:28.348Z,1.45
2022-09-20T23:31:18.919Z,1.50
2022-09-20T23:34:09.691Z,1.30
2022-09-20T23:36:59.125Z,1.23
2022-09-20T23:39:48.465Z,1.60
2022-09-20T23:42:37.903Z,1.40
2022-09-20T23:45:27.290Z,1.30
2022-09-20T23:48:16.799Z,1.30
2022-09-20T23:51:08.003Z,1.42
2022-09-20T23:53:57.722Z,1.52
2022-09-20T23:56:47.220Z,1.48
2022-09-20T23:59:36.754Z,1.60
